Dvinskoy Bereznik, Russia
Current Conditions -  °F | °C
As of 4:30 AM on Wednesday 22 Oct 2014 (Local Time) from UUYY Reporting Station
Clear Clear  
Wind Chill: -11°   Ceiling: Unl
Heat Index:   Visibility: 6mi
Dew Point: -2°   Wind: 9mph
Humidity: 78%   Direction: 20°NNE
Pressure: 29.91"   Gusts: NA
Location:  61.7°N, 45.53°E
Report Text: UUYY 220130Z 02004MPS CAVOK M16/M19 Q1013 NOSIG 01CLRD61 RMKQFE751/1001
Loading
Personal Weather Stations






























Interactive Weather Map
Tropical Storm Tracking
New forecast layout! Learn more

10-Day Weather Forecast

Advertisements
Track Severe Weather on mobile